• vieta
  • image
  • image
  • image
mod_vvisit_countermod_vvisit_countermod_vvisit_countermod_vvisit_countermod_vvisit_countermod_vvisit_counter
mod_vvisit_counterŠiandien787
mod_vvisit_counterVakar562
mod_vvisit_counterŠią savaitę3834
mod_vvisit_counterPraėjusią savaitę6262
mod_vvisit_counterŠį mėnesį22712
mod_vvisit_counterPraėjusį mėnesį35742
mod_vvisit_counterViso661070

Mes turime: 13 svečius, 3 bots online
Jūsų IP: 54.198.118.102
 , 
Šiandien: Geg 26, 2017
Oro uostas / Įmonė / Veiklos rodikliai

Veiklos rodikliai

SĮ Šiaulių oro uosto krovinių ir keleivių statistika

 

SQQ krova orlaiviai

Šiandien

Penktadienis, 26 Gegužė 2017

Orų prognozė

Šiauliai °C
   

Orų prognozė aviacijai

[source: ADDS]
METAR
EYSA 261820Z 01004KT CAVOK 14/07 Q1018 BLU NOSIG =
TAF
TAF EYSA 261700Z 2618/2703 04006KT 9000 BKN030 TEMPO 2700/2703 2000 BR BKN006 =
SR / SS: 02:02 / 18:47 UTC (EYSA 2017-05-26)

Paieška

Lankytojai

Mes turime 16 svečius online

tic logo lt